sensor_id;sensor_type;location;lat;lon;timestamp;P1;durP1;ratioP1;P2;durP2;ratioP2
18778;SDS011;9518;51.720;14.384;2023-07-09T00:01:12;1999.90;;;999.90;;
18778;SDS011;9518;51.720;14.384;2023-07-09T00:03:42;1999.90;;;999.90;;
18778;SDS011;9518;51.720;14.384;2023-07-09T00:06:09;1999.90;;;999.90;;
18778;SDS011;9518;51.720;14.384;2023-07-09T00:08:39;1999.90;;;999.90;;
18778;SDS011;9518;51.720;14.384;2023-07-09T00:11:11;1999.90;;;999.90;;
18778;SDS011;9518;51.720;14.384;2023-07-09T00:13:38;1999.90;;;999.90;;
18778;SDS011;9518;51.720;14.384;2023-07-09T00:16:07;1999.90;;;999.90;;
18778;SDS011;9518;51.720;14.384;2023-07-09T00:18:40;1999.90;;;999.90;;
18778;SDS011;9518;51.720;14.384;2023-07-09T00:21:07;1999.90;;;999.90;;
18778;SDS011;9518;51.720;14.384;2023-07-09T00:23:34;1999.90;;;999.90;;
18778;SDS011;9518;51.720;14.384;2023-07-09T00:26:04;1999.90;;;999.90;;
18778;SDS011;9518;51.720;14.384;2023-07-09T00:28:35;1999.90;;;999.90;;
18778;SDS011;9518;51.720;14.384;2023-07-09T00:31:02;1999.90;;;999.90;;
18778;SDS011;9518;51.720;14.384;2023-07-09T00:33:30;1999.90;;;999.90;;
18778;SDS011;9518;51.720;14.384;2023-07-09T00:35:57;1999.90;;;999.90;;
18778;SDS011;9518;51.720;14.384;2023-07-09T00:38:26;1999.90;;;999.90;;
18778;SDS011;9518;51.720;14.384;2023-07-09T00:41:03;1999.90;;;999.90;;
18778;SDS011;9518;51.720;14.384;2023-07-09T00:43:32;1999.90;;;999.90;;
18778;SDS011;9518;51.720;14.384;2023-07-09T00:46:13;1999.90;;;999.90;;
18778;SDS011;9518;51.720;14.384;2023-07-09T00:48:44;1999.90;;;999.90;;
18778;SDS011;9518;51.720;14.384;2023-07-09T00:51:15;1999.90;;;999.90;;
18778;SDS011;9518;51.720;14.384;2023-07-09T00:53:45;1999.90;;;999.90;;
18778;SDS011;9518;51.720;14.384;2023-07-09T00:56:16;1999.90;;;999.90;;
18778;SDS011;9518;51.720;14.384;2023-07-09T00:58:50;1999.90;;;999.90;;
18778;SDS011;9518;51.720;14.384;2023-07-09T01:01:19;1999.90;;;999.90;;
18778;SDS011;9518;51.720;14.384;2023-07-09T01:03:49;1999.90;;;999.90;;
18778;SDS011;9518;51.720;14.384;2023-07-09T01:06:23;1999.90;;;999.90;;
18778;SDS011;9518;51.720;14.384;2023-07-09T01:08:57;1999.90;;;999.90;;
18778;SDS011;9518;51.720;14.384;2023-07-09T01:11:26;1999.90;;;999.90;;
18778;SDS011;9518;51.720;14.384;2023-07-09T01:13:54;1999.90;;;999.90;;
18778;SDS011;9518;51.720;14.384;2023-07-09T01:16:24;1999.90;;;999.90;;
18778;SDS011;9518;51.720;14.384;2023-07-09T01:18:54;1999.90;;;999.90;;
18778;SDS011;9518;51.720;14.384;2023-07-09T01:21:27;1999.90;;;999.90;;
18778;SDS011;9518;51.720;14.384;2023-07-09T01:23:54;1999.90;;;999.90;;
18778;SDS011;9518;51.720;14.384;2023-07-09T01:26:24;1999.90;;;999.90;;
18778;SDS011;9518;51.720;14.384;2023-07-09T01:28:52;1999.90;;;999.90;;
18778;SDS011;9518;51.720;14.384;2023-07-09T01:31:21;1999.90;;;999.90;;
18778;SDS011;9518;51.720;14.384;2023-07-09T01:33:48;1999.90;;;999.90;;
18778;SDS011;9518;51.720;14.384;2023-07-09T01:36:16;1999.90;;;999.90;;
18778;SDS011;9518;51.720;14.384;2023-07-09T01:38:49;1999.90;;;999.90;;
18778;SDS011;9518;51.720;14.384;2023-07-09T01:41:17;1999.90;;;999.90;;
18778;SDS011;9518;51.720;14.384;2023-07-09T01:43:44;1999.90;;;999.90;;
18778;SDS011;9518;51.720;14.384;2023-07-09T01:46:11;1999.90;;;999.90;;
18778;SDS011;9518;51.720;14.384;2023-07-09T01:48:39;1999.90;;;999.90;;
18778;SDS011;9518;51.720;14.384;2023-07-09T01:51:07;1999.90;;;999.90;;
18778;SDS011;9518;51.720;14.384;2023-07-09T01:53:35;1999.90;;;999.90;;
18778;SDS011;9518;51.720;14.384;2023-07-09T01:56:05;1999.90;;;999.90;;
18778;SDS011;9518;51.720;14.384;2023-07-09T01:58:32;1999.90;;;999.90;;
18778;SDS011;9518;51.720;14.384;2023-07-09T02:01:00;1999.90;;;999.90;;
18778;SDS011;9518;51.720;14.384;2023-07-09T02:03:27;1999.90;;;999.90;;
18778;SDS011;9518;51.720;14.384;2023-07-09T02:05:54;1999.90;;;999.90;;
18778;SDS011;9518;51.720;14.384;2023-07-09T02:08:23;1999.90;;;999.90;;
18778;SDS011;9518;51.720;14.384;2023-07-09T02:10:50;1999.90;;;999.90;;
18778;SDS011;9518;51.720;14.384;2023-07-09T02:13:21;1999.90;;;999.90;;
18778;SDS011;9518;51.720;14.384;2023-07-09T02:15:48;1999.90;;;999.90;;
18778;SDS011;9518;51.720;14.384;2023-07-09T02:18:15;1999.90;;;999.90;;
18778;SDS011;9518;51.720;14.384;2023-07-09T02:20:42;1999.90;;;999.90;;
18778;SDS011;9518;51.720;14.384;2023-07-09T02:23:25;1999.90;;;999.90;;
18778;SDS011;9518;51.720;14.384;2023-07-09T02:25:53;1999.90;;;999.90;;
18778;SDS011;9518;51.720;14.384;2023-07-09T02:28:21;1999.90;;;999.90;;
18778;SDS011;9518;51.720;14.384;2023-07-09T02:30:48;1999.90;;;999.90;;
18778;SDS011;9518;51.720;14.384;2023-07-09T02:33:15;1999.90;;;999.90;;
18778;SDS011;9518;51.720;14.384;2023-07-09T02:35:45;1999.90;;;999.90;;
18778;SDS011;9518;51.720;14.384;2023-07-09T02:38:13;1999.90;;;999.90;;
18778;SDS011;9518;51.720;14.384;2023-07-09T02:40:40;1999.90;;;999.90;;
18778;SDS011;9518;51.720;14.384;2023-07-09T02:43:07;1999.90;;;999.90;;
18778;SDS011;9518;51.720;14.384;2023-07-09T02:45:36;1999.90;;;999.90;;
18778;SDS011;9518;51.720;14.384;2023-07-09T02:48:03;1999.90;;;999.90;;
18778;SDS011;9518;51.720;14.384;2023-07-09T02:50:30;1999.90;;;999.90;;
18778;SDS011;9518;51.720;14.384;2023-07-09T02:52:57;1999.90;;;999.90;;
18778;SDS011;9518;51.720;14.384;2023-07-09T02:55:24;1999.90;;;999.90;;
18778;SDS011;9518;51.720;14.384;2023-07-09T02:57:51;1999.90;;;999.90;;
18778;SDS011;9518;51.720;14.384;2023-07-09T03:00:18;1999.90;;;999.90;;
18778;SDS011;9518;51.720;14.384;2023-07-09T03:02:47;1999.90;;;999.90;;
18778;SDS011;9518;51.720;14.384;2023-07-09T03:05:14;1999.90;;;999.90;;
18778;SDS011;9518;51.720;14.384;2023-07-09T03:07:42;1999.90;;;999.90;;
18778;SDS011;9518;51.720;14.384;2023-07-09T03:10:09;1999.90;;;999.90;;
18778;SDS011;9518;51.720;14.384;2023-07-09T03:12:36;1999.90;;;999.90;;
18778;SDS011;9518;51.720;14.384;2023-07-09T03:15:03;1999.90;;;999.90;;
18778;SDS011;9518;51.720;14.384;2023-07-09T03:17:31;1999.90;;;999.90;;
18778;SDS011;9518;51.720;14.384;2023-07-09T03:20:02;1999.90;;;999.90;;
18778;SDS011;9518;51.720;14.384;2023-07-09T03:22:32;1999.90;;;999.90;;
18778;SDS011;9518;51.720;14.384;2023-07-09T03:25:02;1999.90;;;999.90;;
18778;SDS011;9518;51.720;14.384;2023-07-09T03:27:29;1999.90;;;999.90;;
18778;SDS011;9518;51.720;14.384;2023-07-09T03:29:56;1999.90;;;999.90;;
18778;SDS011;9518;51.720;14.384;2023-07-09T03:32:25;1999.90;;;999.90;;
18778;SDS011;9518;51.720;14.384;2023-07-09T03:34:52;1999.90;;;999.90;;
18778;SDS011;9518;51.720;14.384;2023-07-09T03:37:21;1999.90;;;999.90;;
18778;SDS011;9518;51.720;14.384;2023-07-09T03:39:48;1999.90;;;999.90;;
18778;SDS011;9518;51.720;14.384;2023-07-09T03:42:15;1999.90;;;999.90;;
18778;SDS011;9518;51.720;14.384;2023-07-09T03:44:42;1999.90;;;999.90;;
18778;SDS011;9518;51.720;14.384;2023-07-09T03:47:09;1999.90;;;999.90;;
18778;SDS011;9518;51.720;14.384;2023-07-09T03:49:37;1999.90;;;999.90;;
18778;SDS011;9518;51.720;14.384;2023-07-09T03:52:06;1999.90;;;999.90;;
18778;SDS011;9518;51.720;14.384;2023-07-09T03:54:35;1999.90;;;999.90;;
18778;SDS011;9518;51.720;14.384;2023-07-09T03:57:02;1999.90;;;999.90;;
18778;SDS011;9518;51.720;14.384;2023-07-09T03:59:30;1999.90;;;999.90;;
18778;SDS011;9518;51.720;14.384;2023-07-09T04:01:57;1999.90;;;999.90;;
18778;SDS011;9518;51.720;14.384;2023-07-09T04:04:24;1999.90;;;999.90;;
18778;SDS011;9518;51.720;14.384;2023-07-09T04:06:51;1999.90;;;999.90;;
18778;SDS011;9518;51.720;14.384;2023-07-09T04:09:18;1999.90;;;999.90;;
18778;SDS011;9518;51.720;14.384;2023-07-09T04:11:46;1999.90;;;999.90;;
18778;SDS011;9518;51.720;14.384;2023-07-09T04:14:13;1999.90;;;999.90;;
18778;SDS011;9518;51.720;14.384;2023-07-09T04:16:40;1999.90;;;999.90;;
18778;SDS011;9518;51.720;14.384;2023-07-09T04:19:07;1999.90;;;999.90;;
18778;SDS011;9518;51.720;14.384;2023-07-09T04:21:34;1999.90;;;999.90;;
18778;SDS011;9518;51.720;14.384;2023-07-09T04:24:01;1999.90;;;999.90;;
18778;SDS011;9518;51.720;14.384;2023-07-09T04:26:29;1999.90;;;999.90;;
18778;SDS011;9518;51.720;14.384;2023-07-09T04:28:57;1999.90;;;999.90;;
18778;SDS011;9518;51.720;14.384;2023-07-09T04:31:24;1999.90;;;999.90;;
18778;SDS011;9518;51.720;14.384;2023-07-09T04:33:51;1999.90;;;999.90;;
18778;SDS011;9518;51.720;14.384;2023-07-09T04:36:18;1999.90;;;999.90;;
18778;SDS011;9518;51.720;14.384;2023-07-09T04:38:45;1999.90;;;999.90;;
18778;SDS011;9518;51.720;14.384;2023-07-09T04:41:12;1999.90;;;999.90;;
18778;SDS011;9518;51.720;14.384;2023-07-09T04:43:39;1999.90;;;999.90;;
18778;SDS011;9518;51.720;14.384;2023-07-09T04:46:08;1999.90;;;999.90;;
18778;SDS011;9518;51.720;14.384;2023-07-09T04:48:35;1999.90;;;999.90;;
18778;SDS011;9518;51.720;14.384;2023-07-09T04:51:02;1999.90;;;999.90;;
18778;SDS011;9518;51.720;14.384;2023-07-09T04:53:30;1999.90;;;999.90;;
18778;SDS011;9518;51.720;14.384;2023-07-09T04:55:57;1999.90;;;999.90;;
18778;SDS011;9518;51.720;14.384;2023-07-09T04:58:24;1999.90;;;999.90;;
18778;SDS011;9518;51.720;14.384;2023-07-09T05:00:51;1999.90;;;999.90;;
18778;SDS011;9518;51.720;14.384;2023-07-09T05:03:20;1999.90;;;999.90;;
18778;SDS011;9518;51.720;14.384;2023-07-09T05:05:47;1999.90;;;999.90;;
18778;SDS011;9518;51.720;14.384;2023-07-09T05:08:14;1999.90;;;999.90;;
18778;SDS011;9518;51.720;14.384;2023-07-09T05:10:41;1999.90;;;999.90;;
18778;SDS011;9518;51.720;14.384;2023-07-09T05:13:08;1999.90;;;999.90;;
18778;SDS011;9518;51.720;14.384;2023-07-09T05:15:39;1999.90;;;999.90;;
18778;SDS011;9518;51.720;14.384;2023-07-09T05:18:07;1999.90;;;999.90;;
18778;SDS011;9518;51.720;14.384;2023-07-09T05:20:36;1999.90;;;999.90;;
18778;SDS011;9518;51.720;14.384;2023-07-09T05:23:03;1999.90;;;999.90;;
18778;SDS011;9518;51.720;14.384;2023-07-09T05:25:30;1999.90;;;999.90;;
18778;SDS011;9518;51.720;14.384;2023-07-09T05:27:57;1999.90;;;999.90;;
18778;SDS011;9518;51.720;14.384;2023-07-09T05:30:25;1999.90;;;999.90;;
18778;SDS011;9518;51.720;14.384;2023-07-09T05:32:52;1999.90;;;999.90;;
18778;SDS011;9518;51.720;14.384;2023-07-09T05:35:22;1999.90;;;999.90;;
18778;SDS011;9518;51.720;14.384;2023-07-09T05:37:52;1999.90;;;999.90;;
18778;SDS011;9518;51.720;14.384;2023-07-09T05:40:19;1999.90;;;999.90;;
18778;SDS011;9518;51.720;14.384;2023-07-09T05:42:47;1999.90;;;999.90;;
18778;SDS011;9518;51.720;14.384;2023-07-09T05:45:14;1999.90;;;999.90;;
18778;SDS011;9518;51.720;14.384;2023-07-09T05:47:41;1999.90;;;999.90;;
18778;SDS011;9518;51.720;14.384;2023-07-09T05:50:09;1999.90;;;999.90;;
18778;SDS011;9518;51.720;14.384;2023-07-09T05:52:36;1999.90;;;999.90;;
18778;SDS011;9518;51.720;14.384;2023-07-09T05:55:06;1999.90;;;999.90;;
18778;SDS011;9518;51.720;14.384;2023-07-09T05:57:33;1999.90;;;999.90;;
18778;SDS011;9518;51.720;14.384;2023-07-09T06:00:00;1999.90;;;999.90;;
18778;SDS011;9518;51.720;14.384;2023-07-09T06:02:27;1999.90;;;999.90;;
18778;SDS011;9518;51.720;14.384;2023-07-09T06:04:54;1999.90;;;999.90;;
18778;SDS011;9518;51.720;14.384;2023-07-09T06:07:23;1999.90;;;999.90;;
18778;SDS011;9518;51.720;14.384;2023-07-09T06:09:50;1999.90;;;999.90;;
18778;SDS011;9518;51.720;14.384;2023-07-09T06:12:19;1999.90;;;999.90;;
18778;SDS011;9518;51.720;14.384;2023-07-09T06:14:46;1999.90;;;999.90;;
18778;SDS011;9518;51.720;14.384;2023-07-09T06:17:13;1999.90;;;999.90;;
18778;SDS011;9518;51.720;14.384;2023-07-09T06:19:40;1999.90;;;999.90;;
18778;SDS011;9518;51.720;14.384;2023-07-09T06:22:07;1999.90;;;999.90;;
18778;SDS011;9518;51.720;14.384;2023-07-09T06:24:34;1999.90;;;999.90;;
18778;SDS011;9518;51.720;14.384;2023-07-09T06:27:01;1999.90;;;999.90;;
18778;SDS011;9518;51.720;14.384;2023-07-09T06:29:30;1999.90;;;999.90;;
18778;SDS011;9518;51.720;14.384;2023-07-09T06:31:57;1999.90;;;999.90;;
18778;SDS011;9518;51.720;14.384;2023-07-09T06:34:24;1999.90;;;999.90;;
18778;SDS011;9518;51.720;14.384;2023-07-09T06:36:51;1999.90;;;999.90;;
18778;SDS011;9518;51.720;14.384;2023-07-09T06:39:18;1999.90;;;999.90;;
18778;SDS011;9518;51.720;14.384;2023-07-09T06:41:45;1999.90;;;999.90;;
18778;SDS011;9518;51.720;14.384;2023-07-09T06:44:12;1999.90;;;999.90;;
18778;SDS011;9518;51.720;14.384;2023-07-09T06:46:40;1999.90;;;999.90;;
18778;SDS011;9518;51.720;14.384;2023-07-09T06:49:10;1999.90;;;999.90;;
18778;SDS011;9518;51.720;14.384;2023-07-09T06:51:37;1999.90;;;999.90;;
18778;SDS011;9518;51.720;14.384;2023-07-09T06:54:04;1999.90;;;999.90;;
18778;SDS011;9518;51.720;14.384;2023-07-09T06:56:33;1999.90;;;999.90;;
18778;SDS011;9518;51.720;14.384;2023-07-09T06:59:00;1999.90;;;999.90;;
18778;SDS011;9518;51.720;14.384;2023-07-09T07:01:27;1999.90;;;999.90;;
18778;SDS011;9518;51.720;14.384;2023-07-09T07:03:56;1999.90;;;999.90;;
18778;SDS011;9518;51.720;14.384;2023-07-09T07:06:23;1999.90;;;999.90;;
18778;SDS011;9518;51.720;14.384;2023-07-09T07:08:52;1999.90;;;999.90;;
18778;SDS011;9518;51.720;14.384;2023-07-09T07:11:19;1999.90;;;999.90;;
18778;SDS011;9518;51.720;14.384;2023-07-09T07:13:47;1999.90;;;999.90;;
18778;SDS011;9518;51.720;14.384;2023-07-09T07:16:16;1999.90;;;999.90;;
18778;SDS011;9518;51.720;14.384;2023-07-09T07:18:43;1999.90;;;999.90;;
18778;SDS011;9518;51.720;14.384;2023-07-09T07:21:12;1999.90;;;999.90;;
18778;SDS011;9518;51.720;14.384;2023-07-09T07:23:39;1999.90;;;999.90;;
18778;SDS011;9518;51.720;14.384;2023-07-09T07:26:06;1999.90;;;999.90;;
18778;SDS011;9518;51.720;14.384;2023-07-09T07:28:34;1999.90;;;999.90;;
18778;SDS011;9518;51.720;14.384;2023-07-09T07:31:01;1999.90;;;999.90;;
18778;SDS011;9518;51.720;14.384;2023-07-09T07:33:29;1999.90;;;999.90;;
18778;SDS011;9518;51.720;14.384;2023-07-09T07:35:57;1999.90;;;999.90;;
18778;SDS011;9518;51.720;14.384;2023-07-09T07:38:31;1999.90;;;999.90;;
18778;SDS011;9518;51.720;14.384;2023-07-09T07:41:00;1999.90;;;999.90;;
18778;SDS011;9518;51.720;14.384;2023-07-09T07:43:27;1999.90;;;999.90;;
18778;SDS011;9518;51.720;14.384;2023-07-09T07:45:55;1999.90;;;999.90;;
18778;SDS011;9518;51.720;14.384;2023-07-09T07:48:22;1999.90;;;999.90;;
18778;SDS011;9518;51.720;14.384;2023-07-09T07:50:49;1999.90;;;999.90;;
18778;SDS011;9518;51.720;14.384;2023-07-09T07:53:16;1999.90;;;999.90;;
18778;SDS011;9518;51.720;14.384;2023-07-09T07:55:44;1999.90;;;999.90;;
18778;SDS011;9518;51.720;14.384;2023-07-09T07:58:12;1999.90;;;999.90;;
18778;SDS011;9518;51.720;14.384;2023-07-09T08:00:39;1999.90;;;999.90;;
18778;SDS011;9518;51.720;14.384;2023-07-09T08:03:06;1999.90;;;999.90;;
18778;SDS011;9518;51.720;14.384;2023-07-09T08:05:34;1999.90;;;999.90;;
18778;SDS011;9518;51.720;14.384;2023-07-09T08:08:01;1999.90;;;999.90;;
18778;SDS011;9518;51.720;14.384;2023-07-09T08:10:28;1999.90;;;999.90;;
18778;SDS011;9518;51.720;14.384;2023-07-09T08:12:56;1999.90;;;999.90;;
18778;SDS011;9518;51.720;14.384;2023-07-09T08:15:25;1999.90;;;999.90;;
18778;SDS011;9518;51.720;14.384;2023-07-09T08:17:59;1999.90;;;999.90;;
18778;SDS011;9518;51.720;14.384;2023-07-09T08:20:31;1999.90;;;999.90;;
18778;SDS011;9518;51.720;14.384;2023-07-09T08:23:00;1999.90;;;999.90;;
18778;SDS011;9518;51.720;14.384;2023-07-09T08:25:41;1999.90;;;999.90;;
18778;SDS011;9518;51.720;14.384;2023-07-09T08:28:10;1999.90;;;999.90;;
18778;SDS011;9518;51.720;14.384;2023-07-09T08:30:41;1999.90;;;999.90;;
18778;SDS011;9518;51.720;14.384;2023-07-09T08:33:08;1999.90;;;999.90;;
18778;SDS011;9518;51.720;14.384;2023-07-09T08:35:35;1999.90;;;999.90;;
18778;SDS011;9518;51.720;14.384;2023-07-09T08:38:03;1999.90;;;999.90;;
18778;SDS011;9518;51.720;14.384;2023-07-09T08:40:30;1999.90;;;999.90;;
18778;SDS011;9518;51.720;14.384;2023-07-09T08:42:59;1999.90;;;999.90;;
18778;SDS011;9518;51.720;14.384;2023-07-09T08:45:36;1999.90;;;999.90;;
18778;SDS011;9518;51.720;14.384;2023-07-09T08:48:13;1999.90;;;999.90;;
18778;SDS011;9518;51.720;14.384;2023-07-09T08:50:45;1999.90;;;999.90;;
18778;SDS011;9518;51.720;14.384;2023-07-09T08:53:18;1999.90;;;999.90;;
18778;SDS011;9518;51.720;14.384;2023-07-09T08:55:48;1999.90;;;999.90;;
18778;SDS011;9518;51.720;14.384;2023-07-09T08:58:20;1999.90;;;999.90;;
18778;SDS011;9518;51.720;14.384;2023-07-09T09:00:55;1999.90;;;999.90;;
18778;SDS011;9518;51.720;14.384;2023-07-09T09:03:28;1999.90;;;999.90;;
18778;SDS011;9518;51.720;14.384;2023-07-09T09:06:02;1999.90;;;999.90;;
18778;SDS011;9518;51.720;14.384;2023-07-09T09:08:37;1999.90;;;999.90;;
18778;SDS011;9518;51.720;14.384;2023-07-09T09:11:19;1999.90;;;999.90;;
18778;SDS011;9518;51.720;14.384;2023-07-09T09:13:51;1999.90;;;999.90;;
18778;SDS011;9518;51.720;14.384;2023-07-09T09:16:24;1999.90;;;999.90;;
18778;SDS011;9518;51.720;14.384;2023-07-09T09:18:55;1999.90;;;999.90;;
18778;SDS011;9518;51.720;14.384;2023-07-09T09:21:25;1999.90;;;999.90;;
18778;SDS011;9518;51.720;14.384;2023-07-09T09:24:02;1999.90;;;999.90;;
18778;SDS011;9518;51.720;14.384;2023-07-09T09:26:41;1999.90;;;999.90;;
18778;SDS011;9518;51.720;14.384;2023-07-09T09:29:10;1999.90;;;999.90;;
18778;SDS011;9518;51.720;14.384;2023-07-09T09:31:42;1999.90;;;999.90;;
18778;SDS011;9518;51.720;14.384;2023-07-09T09:34:19;1999.90;;;999.90;;
18778;SDS011;9518;51.720;14.384;2023-07-09T09:36:50;1999.90;;;999.90;;
18778;SDS011;9518;51.720;14.384;2023-07-09T09:39:18;1999.90;;;999.90;;
18778;SDS011;9518;51.720;14.384;2023-07-09T09:41:46;1999.90;;;999.90;;
18778;SDS011;9518;51.720;14.384;2023-07-09T09:44:17;1999.90;;;999.90;;
18778;SDS011;9518;51.720;14.384;2023-07-09T09:46:47;1999.90;;;999.90;;
18778;SDS011;9518;51.720;14.384;2023-07-09T09:49:15;1999.90;;;999.90;;
18778;SDS011;9518;51.720;14.384;2023-07-09T09:51:43;1999.90;;;999.90;;
18778;SDS011;9518;51.720;14.384;2023-07-09T09:54:15;1999.90;;;999.90;;
18778;SDS011;9518;51.720;14.384;2023-07-09T09:56:44;1999.90;;;999.90;;
18778;SDS011;9518;51.720;14.384;2023-07-09T09:59:16;1999.90;;;999.90;;
18778;SDS011;9518;51.720;14.384;2023-07-09T10:01:55;1999.90;;;999.90;;
18778;SDS011;9518;51.720;14.384;2023-07-09T10:04:25;1999.90;;;999.90;;
18778;SDS011;9518;51.720;14.384;2023-07-09T10:06:54;1999.90;;;999.90;;
18778;SDS011;9518;51.720;14.384;2023-07-09T10:09:27;1999.90;;;999.90;;
18778;SDS011;9518;51.720;14.384;2023-07-09T10:12:09;1999.90;;;999.90;;
18778;SDS011;9518;51.720;14.384;2023-07-09T10:14:45;1999.90;;;999.90;;
18778;SDS011;9518;51.720;14.384;2023-07-09T10:17:21;1999.90;;;999.90;;
18778;SDS011;9518;51.720;14.384;2023-07-09T10:19:56;1999.90;;;999.90;;
18778;SDS011;9518;51.720;14.384;2023-07-09T10:22:32;1999.90;;;999.90;;
18778;SDS011;9518;51.720;14.384;2023-07-09T10:25:19;1999.90;;;999.90;;
18778;SDS011;9518;51.720;14.384;2023-07-09T10:28:03;1999.90;;;999.90;;
18778;SDS011;9518;51.720;14.384;2023-07-09T10:30:49;1999.90;;;999.90;;
18778;SDS011;9518;51.720;14.384;2023-07-09T10:33:27;1999.90;;;999.90;;
18778;SDS011;9518;51.720;14.384;2023-07-09T10:36:16;1999.90;;;999.90;;
18778;SDS011;9518;51.720;14.384;2023-07-09T10:38:57;1999.90;;;999.90;;
18778;SDS011;9518;51.720;14.384;2023-07-09T10:41:30;1999.90;;;999.90;;
18778;SDS011;9518;51.720;14.384;2023-07-09T10:44:03;1999.90;;;999.90;;
18778;SDS011;9518;51.720;14.384;2023-07-09T10:46:37;1999.90;;;999.90;;
18778;SDS011;9518;51.720;14.384;2023-07-09T10:49:10;1999.90;;;999.90;;
18778;SDS011;9518;51.720;14.384;2023-07-09T10:51:41;1999.90;;;999.90;;
18778;SDS011;9518;51.720;14.384;2023-07-09T10:54:17;1999.90;;;999.90;;
18778;SDS011;9518;51.720;14.384;2023-07-09T10:56:53;1999.90;;;999.90;;
18778;SDS011;9518;51.720;14.384;2023-07-09T10:59:29;1999.90;;;999.90;;
18778;SDS011;9518;51.720;14.384;2023-07-09T11:02:11;1999.90;;;999.90;;
18778;SDS011;9518;51.720;14.384;2023-07-09T11:04:46;1788.72;;;999.90;;
18778;SDS011;9518;51.720;14.384;2023-07-09T11:07:17;1888.63;;;999.90;;
18778;SDS011;9518;51.720;14.384;2023-07-09T11:09:48;1744.15;;;999.90;;
18778;SDS011;9518;51.720;14.384;2023-07-09T11:12:22;1871.47;;;999.90;;
18778;SDS011;9518;51.720;14.384;2023-07-09T11:14:55;1884.18;;;999.90;;
18778;SDS011;9518;51.720;14.384;2023-07-09T11:17:26;1791.20;;;999.90;;
18778;SDS011;9518;51.720;14.384;2023-07-09T11:19:58;1725.75;;;999.90;;
18778;SDS011;9518;51.720;14.384;2023-07-09T11:22:27;1719.55;;;999.90;;
18778;SDS011;9518;51.720;14.384;2023-07-09T11:25:06;1544.97;;;999.90;;
18778;SDS011;9518;51.720;14.384;2023-07-09T11:27:44;1596.93;;;999.90;;
18778;SDS011;9518;51.720;14.384;2023-07-09T11:30:20;1938.72;;;999.90;;
18778;SDS011;9518;51.720;14.384;2023-07-09T11:32:52;1746.43;;;999.90;;
18778;SDS011;9518;51.720;14.384;2023-07-09T11:35:24;1825.78;;;999.90;;
18778;SDS011;9518;51.720;14.384;2023-07-09T11:37:54;1945.25;;;999.90;;
18778;SDS011;9518;51.720;14.384;2023-07-09T11:40:24;1999.90;;;999.90;;
18778;SDS011;9518;51.720;14.384;2023-07-09T11:42:52;1999.90;;;999.90;;
18778;SDS011;9518;51.720;14.384;2023-07-09T11:45:21;1806.80;;;999.90;;
18778;SDS011;9518;51.720;14.384;2023-07-09T11:47:53;1787.28;;;999.90;;
18778;SDS011;9518;51.720;14.384;2023-07-09T11:50:32;1999.90;;;999.90;;
18778;SDS011;9518;51.720;14.384;2023-07-09T11:53:05;1963.57;;;999.90;;
18778;SDS011;9518;51.720;14.384;2023-07-09T11:55:48;1900.30;;;999.90;;
18778;SDS011;9518;51.720;14.384;2023-07-09T11:58:16;1891.13;;;999.90;;
18778;SDS011;9518;51.720;14.384;2023-07-09T12:00:47;1917.90;;;999.90;;
18778;SDS011;9518;51.720;14.384;2023-07-09T12:03:16;1915.07;;;999.90;;
18778;SDS011;9518;51.720;14.384;2023-07-09T12:05:49;1960.45;;;999.90;;
18778;SDS011;9518;51.720;14.384;2023-07-09T12:08:18;1918.82;;;999.90;;
18778;SDS011;9518;51.720;14.384;2023-07-09T12:10:51;1999.90;;;999.90;;
18778;SDS011;9518;51.720;14.384;2023-07-09T12:13:19;1999.90;;;999.90;;
18778;SDS011;9518;51.720;14.384;2023-07-09T12:15:46;1999.90;;;999.90;;
18778;SDS011;9518;51.720;14.384;2023-07-09T12:18:14;1999.90;;;999.90;;
18778;SDS011;9518;51.720;14.384;2023-07-09T12:20:47;1999.90;;;999.90;;
18778;SDS011;9518;51.720;14.384;2023-07-09T12:23:19;1999.90;;;999.90;;
18778;SDS011;9518;51.720;14.384;2023-07-09T12:25:54;1999.90;;;999.90;;
18778;SDS011;9518;51.720;14.384;2023-07-09T12:28:25;1999.90;;;999.90;;
18778;SDS011;9518;51.720;14.384;2023-07-09T12:30:54;1999.90;;;999.90;;
18778;SDS011;9518;51.720;14.384;2023-07-09T12:33:22;1999.90;;;999.90;;
18778;SDS011;9518;51.720;14.384;2023-07-09T12:35:54;1999.90;;;999.90;;
18778;SDS011;9518;51.720;14.384;2023-07-09T12:38:26;1999.90;;;999.90;;
18778;SDS011;9518;51.720;14.384;2023-07-09T12:40:55;1999.90;;;999.90;;
18778;SDS011;9518;51.720;14.384;2023-07-09T12:43:27;1999.90;;;999.90;;
18778;SDS011;9518;51.720;14.384;2023-07-09T12:45:57;1999.90;;;999.90;;
18778;SDS011;9518;51.720;14.384;2023-07-09T12:48:26;1999.90;;;999.90;;
18778;SDS011;9518;51.720;14.384;2023-07-09T12:50:56;1999.90;;;999.90;;
18778;SDS011;9518;51.720;14.384;2023-07-09T12:53:35;1999.90;;;999.90;;
18778;SDS011;9518;51.720;14.384;2023-07-09T12:56:10;1999.90;;;999.90;;
18778;SDS011;9518;51.720;14.384;2023-07-09T12:58:39;1999.90;;;999.90;;
18778;SDS011;9518;51.720;14.384;2023-07-09T13:01:07;1999.90;;;999.90;;
18778;SDS011;9518;51.720;14.384;2023-07-09T13:03:41;1999.90;;;999.90;;
18778;SDS011;9518;51.720;14.384;2023-07-09T13:06:35;1999.90;;;999.90;;
18778;SDS011;9518;51.720;14.384;2023-07-09T13:09:11;1999.90;;;999.90;;
18778;SDS011;9518;51.720;14.384;2023-07-09T13:11:48;1999.90;;;999.90;;
18778;SDS011;9518;51.720;14.384;2023-07-09T13:14:24;1999.90;;;999.90;;
18778;SDS011;9518;51.720;14.384;2023-07-09T13:17:09;1999.90;;;999.90;;
18778;SDS011;9518;51.720;14.384;2023-07-09T13:19:43;1999.90;;;999.90;;
18778;SDS011;9518;51.720;14.384;2023-07-09T13:22:19;1999.90;;;999.90;;
18778;SDS011;9518;51.720;14.384;2023-07-09T13:25:20;1999.90;;;999.90;;
18778;SDS011;9518;51.720;14.384;2023-07-09T13:27:47;1999.90;;;999.90;;
18778;SDS011;9518;51.720;14.384;2023-07-09T13:30:18;1999.90;;;999.90;;
18778;SDS011;9518;51.720;14.384;2023-07-09T13:32:45;1999.90;;;999.90;;
18778;SDS011;9518;51.720;14.384;2023-07-09T13:35:14;1999.90;;;999.90;;
18778;SDS011;9518;51.720;14.384;2023-07-09T13:37:45;1999.90;;;999.90;;
18778;SDS011;9518;51.720;14.384;2023-07-09T13:40:12;1999.90;;;999.90;;
18778;SDS011;9518;51.720;14.384;2023-07-09T13:42:41;1999.90;;;999.90;;
18778;SDS011;9518;51.720;14.384;2023-07-09T13:45:15;1999.90;;;999.90;;
18778;SDS011;9518;51.720;14.384;2023-07-09T13:47:47;1999.90;;;999.90;;
18778;SDS011;9518;51.720;14.384;2023-07-09T13:50:15;1999.90;;;999.90;;
18778;SDS011;9518;51.720;14.384;2023-07-09T13:52:47;1999.90;;;999.90;;
18778;SDS011;9518;51.720;14.384;2023-07-09T13:55:23;1999.90;;;999.90;;
18778;SDS011;9518;51.720;14.384;2023-07-09T13:57:52;1999.90;;;999.90;;
18778;SDS011;9518;51.720;14.384;2023-07-09T14:00:44;1999.90;;;999.90;;